Time;durP1;ratioP1;P1;durP2;ratioP2;P2;SDS_P1;SDS_P2;PMS_P1;PMS_P2;Temp;Humidity;BMP_temperature;BMP_pressure;BME280_temperature;BME280_humidity;BME280_pressure;Samples;Min_cycle;Max_cycle;Signal;HPM_P1;HPM_P2
2022/05/26 00:00:29;;;;;;;2.40;1.20;;;;;;;16.40;53.84;99539.81;5224499;28;20139;-70
2022/05/26 00:03:20;;;;;;;2.70;0.90;;;;;;;16.34;53.30;99521.75;5224275;28;20052;-69
2022/05/26 00:06:11;;;;;;;2.28;0.88;;;;;;;16.40;51.85;99523.78;5223730;28;20052;-71
2022/05/26 00:09:01;;;;;;;2.83;0.82;;;;;;;16.55;51.35;99547.16;5224271;28;20053;-68
2022/05/26 00:11:52;;;;;;;4.90;0.80;;;;;;;16.74;51.50;99538.78;5223774;28;20073;-72
2022/05/26 00:14:42;;;;;;;2.75;0.70;;;;;;;16.76;50.90;99535.97;5222981;28;20186;-69
2022/05/26 00:17:33;;;;;;;5.78;0.75;;;;;;;16.85;51.08;99541.16;5218583;28;20087;-69
2022/05/26 00:20:23;;;;;;;5.10;0.85;;;;;;;16.76;51.20;99528.78;5223953;28;20059;-71
2022/05/26 00:23:13;;;;;;;6.15;0.85;;;;;;;16.67;52.55;99546.66;5223838;28;20052;-69
2022/05/26 00:26:04;;;;;;;1.55;0.75;;;;;;;16.80;51.17;99553.38;5222618;28;20057;-69
2022/05/26 00:28:54;;;;;;;2.72;0.68;;;;;;;17.01;51.01;99558.19;5223845;28;20109;-68
2022/05/26 00:31:45;;;;;;;1.13;0.73;;;;;;;17.15;51.38;99554.78;5226145;28;20049;-69
2022/05/26 00:34:35;;;;;;;1.80;0.55;;;;;;;17.03;50.75;99540.09;5224873;28;20488;-68
2022/05/26 00:37:26;;;;;;;1.40;0.50;;;;;;;17.07;50.22;99550.28;5224599;28;20136;-69
2022/05/26 00:40:16;;;;;;;4.57;0.68;;;;;;;17.10;51.34;99549.94;5225073;28;20065;-68
2022/05/26 00:43:07;;;;;;;3.70;0.75;;;;;;;17.10;51.64;99543.75;5224107;28;20489;-69
2022/05/26 00:46:07;;;;;;;5.03;1.02;;;;;;;17.05;52.10;99556.81;5223498;28;20052;-69
2022/05/26 00:49:00;;;;;;;2.53;0.85;;;;;;;17.15;51.83;99549.41;5221109;28;20063;-70
2022/05/26 00:51:51;;;;;;;3.80;0.80;;;;;;;17.22;50.69;99555.78;5224038;28;20465;-68
2022/05/26 00:54:45;;;;;;;1.02;0.50;;;;;;;17.24;49.96;99551.06;5225066;28;20110;-70
2022/05/26 00:57:41;;;;;;;0.90;0.65;;;;;;;17.14;50.34;99553.94;5225117;28;20131;-68
2022/05/26 01:00:36;;;;;;;2.90;0.55;;;;;;;17.11;49.85;99540.88;5224174;28;20080;-71
2022/05/26 01:03:28;;;;;;;;;;;;;;;17.16;50.25;99553.78;5224854;28;20053;-69
2022/05/26 01:06:24;;;;;;;1.23;0.60;;;;;;;17.17;49.80;99546.59;5223453;28;19925;-68
2022/05/26 01:09:14;;;;;;;2.78;0.70;;;;;;;17.20;50.18;99552.44;5224327;28;20461;-70
2022/05/26 01:12:05;;;;;;;5.95;0.60;;;;;;;17.22;50.39;99554.91;5228479;28;20063;-69
2022/05/26 01:15:01;;;;;;;2.55;0.40;;;;;;;17.21;50.93;99556.78;5229782;28;20045;-69
2022/05/26 01:18:07;;;;;;;6.07;0.77;;;;;;;17.24;50.32;99551.06;5222146;28;20044;-69
2022/05/26 01:21:18;;;;;;;1.75;0.65;;;;;;;17.13;51.18;99538.06;5219089;28;20071;-69
2022/05/26 01:24:46;;;;;;;2.13;0.65;;;;;;;17.24;50.69;99544.88;5217696;28;20138;-69
2022/05/26 01:27:40;;;;;;;2.15;0.80;;;;;;;17.14;50.19;99547.75;5222612;28;20594;-69
2022/05/26 01:30:53;;;;;;;2.35;0.50;;;;;;;17.17;49.54;99525.16;5224063;28;20080;-70
2022/05/26 01:34:04;;;;;;;2.72;0.60;;;;;;;17.28;49.87;99544.34;5221712;28;20051;-72
2022/05/26 01:37:43;;;;;;;2.97;0.77;;;;;;;17.28;49.60;99522.06;5223909;28;20191;-72
2022/05/26 01:40:47;;;;;;;4.75;0.70;;;;;;;17.10;50.15;99535.72;5218737;28;20423;-68
2022/05/26 01:43:55;;;;;;;0.90;0.52;;;;;;;17.08;51.32;99543.09;5222544;28;20056;-70
2022/05/26 01:46:45;;;;;;;1.13;0.60;;;;;;;16.88;51.24;99543.47;5222024;28;20114;-70
2022/05/26 01:49:48;;;;;;;1.35;0.50;;;;;;;16.81;51.08;99539.81;5223687;28;20560;-69
2022/05/26 01:52:51;;;;;;;4.28;0.50;;;;;;;16.78;51.45;99547.34;5223560;28;20045;-69
2022/05/26 01:56:01;;;;;;;3.60;0.63;;;;;;;16.77;51.58;99551.88;5223242;28;20684;-69
2022/05/26 01:59:06;;;;;;;2.67;0.60;;;;;;;16.49;51.64;99539.81;5222094;28;20149;-69
2022/05/26 02:02:04;;;;;;;1.38;0.73;;;;;;;16.48;51.81;99540.81;5232234;28;20273;-69
2022/05/26 02:05:00;;;;;;;3.60;0.70;;;;;;;16.26;52.28;99535.16;5215663;28;20555;-69
2022/05/26 02:08:23;;;;;;;3.03;0.85;;;;;;;16.35;52.53;99539.47;5220909;28;20194;-68
2022/05/26 02:11:16;;;;;;;2.75;0.60;;;;;;;16.28;52.55;99551.03;5212175;28;20053;-69
2022/05/26 02:14:12;;;;;;;0.77;0.40;;;;;;;16.16;53.08;99547.88;5218638;28;20560;-69
2022/05/26 02:17:12;;;;;;;0.80;0.55;;;;;;;16.04;53.93;99552.69;5222054;28;20055;-68
2022/05/26 02:20:08;;;;;;;2.08;0.50;;;;;;;15.97;53.52;99541.81;5202578;28;20057;-68
2022/05/26 02:23:30;;;;;;;1.85;0.50;;;;;;;15.91;53.62;99537.13;5221197;28;20071;-68
2022/05/26 02:26:21;;;;;;;2.67;0.88;;;;;;;15.91;53.12;99552.34;5219305;28;20075;-68
2022/05/26 02:32:29;;;;;;;0.95;0.52;;;;;;;15.86;52.49;99552.84;5223409;28;20056;-71
2022/05/26 02:35:29;;;;;;;3.22;0.57;;;;;;;15.67;52.82;99539.75;5223345;28;20056;-68
2022/05/26 02:38:22;;;;;;;2.50;0.80;;;;;;;15.79;53.34;99543.78;5200542;28;20434;-69
2022/05/26 02:41:13;;;;;;;1.40;0.70;;;;;;;15.77;52.81;99539.63;5223141;28;20052;-68
2022/05/26 02:44:04;;;;;;;1.05;0.52;;;;;;;15.67;53.70;99531.72;5222032;28;20049;-68
2022/05/26 02:47:31;;;;;;;2.08;0.80;;;;;;;15.70;53.97;99544.78;5223167;28;20462;-68
2022/05/26 02:50:45;;;;;;;1.88;0.85;;;;;;;15.55;55.09;99543.69;5203027;28;20155;-68
2022/05/26 02:53:50;;;;;;;3.38;1.10;;;;;;;15.59;56.09;99550.38;5217177;28;20045;-67
2022/05/26 02:56:54;;;;;;;3.13;1.00;;;;;;;15.46;56.92;99550.81;5222914;28;20182;-68
2022/05/26 03:00:03;;;;;;;2.95;0.98;;;;;;;15.47;56.72;99558.69;5213539;28;20428;-70
2022/05/26 03:03:06;;;;;;;1.02;0.80;;;;;;;15.38;57.01;99554.31;5219157;28;20134;-69
2022/05/26 03:06:35;;;;;;;3.33;1.00;;;;;;;15.47;57.43;99560.53;5216435;28;20049;-70
2022/05/26 03:09:27;;;;;;;2.05;0.73;;;;;;;15.56;55.50;99556.88;5202510;28;20091;-69
2022/05/26 03:12:30;;;;;;;2.83;0.68;;;;;;;15.64;53.97;99538.19;5223081;28;20133;-70
2022/05/26 03:15:21;;;;;;;0.68;0.68;;;;;;;15.79;53.65;99548.28;5213479;28;20479;-68
2022/05/26 03:18:11;;;;;;;5.00;1.00;;;;;;;15.87;52.85;99559.84;5209226;28;20060;-70
2022/05/26 03:21:03;;;;;;;3.10;0.70;;;;;;;15.92;52.81;99557.50;5222622;28;20060;-68
2022/05/26 03:23:53;;;;;;;1.13;0.50;;;;;;;15.97;51.82;99546.34;5216371;28;20060;-69
2022/05/26 03:26:43;;;;;;;2.80;0.70;;;;;;;16.20;52.17;99563.41;5224988;28;20407;-70
2022/05/26 03:29:33;;;;;;;1.33;0.60;;;;;;;16.21;51.98;99565.06;5227102;28;20049;-68
2022/05/26 03:32:24;;;;;;;3.08;0.43;;;;;;;16.24;51.98;99555.88;5219300;28;20049;-70
2022/05/26 03:41:37;;;;;;;2.58;0.80;;;;;;;16.28;52.43;99559.88;5211783;28;20104;-70
2022/05/26 03:44:30;;;;;;;8.02;0.60;;;;;;;16.53;50.75;99565.25;5219889;28;20071;-68
2022/05/26 03:47:20;;;;;;;2.83;0.50;;;;;;;16.39;52.13;99558.72;5226225;28;20499;-72
2022/05/26 03:50:10;;;;;;;3.88;0.82;;;;;;;16.56;50.83;99575.63;5226937;28;20079;-72
2022/05/26 03:53:01;;;;;;;3.25;0.50;;;;;;;16.64;50.66;99572.94;5225919;28;20057;-70
2022/05/26 03:55:51;;;;;;;2.67;0.65;;;;;;;16.60;51.41;99571.59;5224838;28;20132;-69
2022/05/26 03:58:41;;;;;;;1.35;0.60;;;;;;;16.55;51.48;99582.81;5221925;28;20052;-69
2022/05/26 04:01:31;;;;;;;1.90;0.68;;;;;;;16.70;50.60;99574.94;5219121;28;20525;-69
2022/05/26 04:04:22;;;;;;;2.50;0.73;;;;;;;16.78;50.57;99579.47;5224782;28;20503;-69
2022/05/26 04:07:13;;;;;;;1.40;0.77;;;;;;;16.84;50.78;99592.19;5224991;28;20075;-69
2022/05/26 04:10:06;;;;;;;0.93;0.60;;;;;;;17.01;50.16;99599.19;5225898;28;20450;-69
2022/05/26 04:12:57;;;;;;;0.70;0.43;;;;;;;17.00;49.77;99588.66;5224331;28;20756;-70
2022/05/26 04:15:47;;;;;;;2.00;0.50;;;;;;;17.06;50.82;99593.34;5225056;28;20053;-70
2022/05/26 04:18:37;;;;;;;3.70;0.60;;;;;;;16.97;50.60;99599.72;5225683;28;20049;-70
2022/05/26 04:21:27;;;;;;;3.25;0.60;;;;;;;17.03;50.04;99591.84;5225231;28;20155;-71
2022/05/26 04:24:18;;;;;;;0.40;0.40;;;;;;;17.10;50.10;99583.94;5223766;28;20207;-70
2022/05/26 04:27:08;;;;;;;2.72;0.50;;;;;;;17.14;49.63;99593.31;5225104;28;20064;-71
2022/05/26 04:29:58;;;;;;;0.55;0.50;;;;;;;17.28;49.27;99613.19;5225068;28;20114;-70
2022/05/26 04:32:50;;;;;;;2.40;0.50;;;;;;;17.50;48.97;99617.81;5225039;28;20045;-70
2022/05/26 04:35:41;;;;;;;2.85;0.50;;;;;;;17.37;49.39;99607.63;5224637;28;20497;-70
2022/05/26 04:38:31;;;;;;;2.40;0.50;;;;;;;17.35;50.79;99615.03;5224155;28;20127;-70
2022/05/26 04:41:21;;;;;;;1.00;0.60;;;;;;;17.34;49.55;99618.72;5224670;28;20425;-69
2022/05/26 04:44:13;;;;;;;1.67;0.60;;;;;;;17.40;49.57;99621.72;5224585;28;20056;-69
2022/05/26 04:47:05;;;;;;;2.08;0.70;;;;;;;17.11;50.30;99602.50;5224836;28;20149;-69
2022/05/26 04:49:55;;;;;;;1.70;0.65;;;;;;;17.25;50.58;99625.13;5224964;28;20063;-69
2022/05/26 04:52:46;;;;;;;3.90;0.80;;;;;;;17.31;50.06;99624.41;5223649;28;20055;-69
2022/05/26 04:55:36;;;;;;;3.22;0.52;;;;;;;17.16;50.91;99628.00;5224611;28;20507;-69
2022/05/26 04:58:26;;;;;;;1.27;0.50;;;;;;;17.02;50.46;99613.41;5224874;28;20427;-69
2022/05/26 05:01:19;;;;;;;5.22;0.50;;;;;;;17.01;50.58;99617.13;5224695;28;20082;-68
2022/05/26 05:04:09;;;;;;;1.67;0.50;;;;;;;16.76;50.88;99603.75;5224525;28;20559;-69
2022/05/26 05:07:00;;;;;;;1.60;0.70;;;;;;;17.05;49.98;99639.88;5224372;28;20105;-69
2022/05/26 05:09:49;;;;;;;3.15;0.70;;;;;;;17.20;50.29;99640.88;5224673;28;20521;-68
2022/05/26 05:12:41;;;;;;;2.40;0.77;;;;;;;17.30;49.84;99638.00;5223504;28;20067;-68
2022/05/26 05:15:37;;;;;;;1.75;0.47;;;;;;;17.33;51.02;99648.38;5224390;28;20233;-69
2022/05/26 05:18:28;;;;;;;3.78;0.80;;;;;;;17.33;50.77;99638.47;5224221;28;20080;-69
2022/05/26 05:21:23;;;;;;;1.23;0.50;;;;;;;17.44;50.65;99649.84;5222998;28;20435;-70
2022/05/26 05:24:33;;;;;;;1.63;0.70;;;;;;;17.59;50.03;99650.81;5221744;28;20470;-69
2022/05/26 05:27:42;;;;;;;2.58;0.68;;;;;;;17.46;49.51;99654.03;5220249;28;20194;-69
2022/05/26 05:30:41;;;;;;;1.95;0.63;;;;;;;17.69;50.24;99659.50;5218854;28;20146;-69
2022/05/26 05:33:43;;;;;;;0.65;0.55;;;;;;;17.92;50.11;99658.78;5223585;28;20080;-69
2022/05/26 05:36:34;;;;;;;5.32;1.00;;;;;;;17.72;50.03;99663.69;5223967;28;20179;-69
2022/05/26 05:39:26;;;;;;;3.25;0.60;;;;;;;17.94;49.89;99670.97;5224022;28;20525;-69
2022/05/26 05:42:16;;;;;;;3.50;0.70;;;;;;;17.23;51.45;99651.25;5220172;28;20064;-69
2022/05/26 05:45:06;;;;;;;2.15;0.70;;;;;;;17.91;50.13;99668.63;5222572;28;20135;-69
2022/05/26 05:47:56;;;;;;;4.13;0.70;;;;;;;18.05;50.28;99688.56;5232102;28;20049;-69
2022/05/26 05:50:46;;;;;;;3.85;0.70;;;;;;;18.26;50.52;99683.41;5222759;28;20056;-70
2022/05/26 05:53:37;;;;;;;4.90;0.65;;;;;;;18.35;49.83;99683.38;5223923;28;20064;-70
2022/05/26 05:56:27;;;;;;;1.25;0.63;;;;;;;18.31;49.47;99686.41;5223582;28;20049;-69
2022/05/26 05:59:17;;;;;;;3.08;0.70;;;;;;;18.40;50.47;99683.66;5228052;28;20052;-69
2022/05/26 06:02:08;;;;;;;1.50;0.63;;;;;;;18.42;49.58;99687.00;5225980;28;20418;-69
2022/05/26 06:05:18;;;;;;;3.17;0.43;;;;;;;18.35;49.86;99662.72;5226425;28;20567;-69
2022/05/26 06:08:09;;;;;;;5.45;0.75;;;;;;;18.47;50.20;99677.38;5223723;28;20057;-69
2022/05/26 06:10:59;;;;;;;1.38;0.60;;;;;;;18.48;50.48;99683.63;5222833;28;20065;-69
2022/05/26 06:13:49;;;;;;;2.78;0.77;;;;;;;17.96;50.02;99695.78;5221891;28;20056;-68
2022/05/26 06:16:40;;;;;;;2.20;0.70;;;;;;;18.30;50.81;99699.97;5218965;28;20052;-70
2022/05/26 06:19:30;;;;;;;4.75;0.82;;;;;;;18.56;50.24;99710.41;5222412;28;20052;-70
2022/05/26 06:22:21;;;;;;;3.72;0.82;;;;;;;18.33;48.75;99706.84;5221876;28;20059;-70
2022/05/26 06:25:14;;;;;;;4.15;0.80;;;;;;;18.73;49.09;99705.78;5223223;28;20052;-70
2022/05/26 06:31:13;;;;;;;6.25;0.85;;;;;;;18.46;49.47;99710.63;5222254;28;20056;-70
2022/05/26 06:37:15;;;;;;;2.45;0.60;;;;;;;19.16;48.60;99701.56;5218852;28;20052;-70
2022/05/26 06:40:07;;;;;;;1.97;0.53;;;;;;;19.17;47.21;99708.63;5223036;28;20490;-70
2022/05/26 06:42:57;;;;;;;1.90;0.40;;;;;;;18.59;49.19;99717.28;5217700;28;20142;-70
2022/05/26 06:45:49;;;;;;;4.40;0.60;;;;;;;19.14;48.22;99719.75;5222609;28;20079;-69
2022/05/26 06:48:39;;;;;;;2.53;0.70;;;;;;;18.92;48.21;99717.91;5222720;28;20064;-70
2022/05/26 06:51:30;;;;;;;2.50;0.70;;;;;;;18.96;48.63;99717.34;5222932;28;20055;-70
2022/05/26 06:54:21;;;;;;;3.35;0.70;;;;;;;19.65;47.88;99735.25;5222052;28;20579;-70
2022/05/26 06:57:12;;;;;;;8.00;0.93;;;;;;;19.76;46.34;99742.03;5208196;28;20466;-70
2022/05/26 07:00:07;;;;;;;5.80;1.00;;;;;;;19.89;46.96;99732.28;5223017;28;20071;-70
2022/05/26 07:02:57;;;;;;;1.38;0.50;;;;;;;19.35;48.05;99742.41;5220550;28;20057;-70
2022/05/26 07:05:48;;;;;;;3.53;0.80;;;;;;;19.71;46.86;99737.22;5221449;28;20124;-70
2022/05/26 07:08:38;;;;;;;4.55;0.50;;;;;;;20.16;45.26;99743.41;5220976;28;20052;-70
2022/05/26 07:11:30;;;;;;;2.58;0.93;;;;;;;20.82;46.04;99749.56;5222804;28;20075;-70
2022/05/26 07:14:20;;;;;;;1.85;0.68;;;;;;;20.52;44.57;99750.72;5222128;28;20056;-70
2022/05/26 07:17:10;;;;;;;2.28;0.73;;;;;;;18.96;47.94;99748.78;5226385;28;20061;-70
2022/05/26 07:20:01;;;;;;;5.35;0.70;;;;;;;20.00;46.02;99760.59;5223695;28;20132;-70
2022/05/26 07:22:52;;;;;;;2.40;0.68;;;;;;;20.16;46.16;99767.63;5225433;28;20049;-70
2022/05/26 07:25:43;;;;;;;1.52;0.60;;;;;;;20.70;45.79;99759.22;5222574;28;20049;-70
2022/05/26 07:28:35;;;;;;;0.95;0.50;;;;;;;20.64;45.51;99759.97;5226649;28;20049;-69
2022/05/26 07:31:26;;;;;;;1.90;0.80;;;;;;;21.14;44.02;99763.59;5231342;28;20057;-70
2022/05/26 07:34:18;;;;;;;4.93;0.80;;;;;;;19.58;47.96;99764.72;5226088;28;20059;-70
2022/05/26 07:43:26;;;;;;;1.75;0.60;;;;;;;19.09;47.37;99772.38;5222727;28;20128;-70
2022/05/26 07:46:17;;;;;;;2.42;0.80;;;;;;;19.33;46.39;99772.16;5222700;28;20060;-71
2022/05/26 07:49:08;;;;;;;2.03;0.68;;;;;;;19.46;46.17;99777.75;5225100;28;20115;-70
2022/05/26 07:52:00;;;;;;;3.35;1.08;;;;;;;19.61;46.45;99785.88;5229844;28;20071;-71
2022/05/26 07:54:50;;;;;;;6.85;0.90;;;;;;;19.25;48.53;99778.44;5226025;28;20107;-70
2022/05/26 07:57:40;;;;;;;2.72;0.75;;;;;;;19.70;47.03;99790.19;5223979;28;20140;-72
2022/05/26 08:00:30;;;;;;;2.75;1.02;;;;;;;19.49;47.09;99772.00;5229126;28;20521;-70
2022/05/26 08:03:21;;;;;;;1.73;0.70;;;;;;;20.06;46.63;99784.06;5222780;28;20076;-71
2022/05/26 08:06:13;;;;;;;1.58;0.60;;;;;;;20.48;46.18;99796.00;5224895;28;20447;-71
2022/05/26 08:09:04;;;;;;;3.10;0.73;;;;;;;19.66;47.55;99782.66;5226317;28;20439;-71
2022/05/26 08:11:54;;;;;;;5.55;1.02;;;;;;;19.04;47.54;99780.97;5220915;28;20048;-71
2022/05/26 08:14:45;;;;;;;1.23;0.80;;;;;;;19.06;47.12;99788.84;5224418;28;20048;-71
2022/05/26 08:17:35;;;;;;;3.40;1.00;;;;;;;18.91;48.39;99799.56;5223152;28;20053;-69
2022/05/26 08:20:26;;;;;;;4.13;0.77;;;;;;;19.17;46.86;99791.97;5211278;28;20055;-70
2022/05/26 08:23:17;;;;;;;4.78;0.88;;;;;;;19.30;47.49;99809.31;5212734;28;20052;-70
2022/05/26 08:26:07;;;;;;;2.25;0.82;;;;;;;19.79;46.20;99809.75;5220911;28;20041;-70
2022/05/26 08:28:58;;;;;;;6.40;0.70;;;;;;;19.27;47.35;99807.84;5223065;28;20051;-71
2022/05/26 08:31:48;;;;;;;3.72;0.52;;;;;;;19.57;46.64;99798.03;5223609;28;20534;-72
2022/05/26 08:34:42;;;;;;;2.47;0.95;;;;;;;19.86;48.16;99807.16;5222041;28;20045;-71
2022/05/26 08:37:33;;;;;;;6.13;0.90;;;;;;;19.99;45.19;99790.38;5230584;28;20115;-72
2022/05/26 08:40:27;;;;;;;3.85;0.73;;;;;;;19.32;46.73;99796.56;5221148;28;20179;-72
2022/05/26 08:43:23;;;;;;;;;;;;;;;19.56;47.10;99817.00;5224492;28;20547;-71
2022/05/26 08:46:19;;;;;;;3.25;0.93;;;;;;;19.20;47.77;99815.81;5232817;28;19928;-72
2022/05/26 08:49:09;;;;;;;3.58;0.70;;;;;;;20.04;47.16;99820.28;5223524;28;20052;-73
2022/05/26 08:52:19;;;;;;;2.00;0.80;;;;;;;19.98;47.19;99815.63;5226411;28;20685;-73
2022/05/26 08:55:17;;;;;;;3.65;0.70;;;;;;;20.13;47.17;99822.72;5226865;28;20053;-74
2022/05/26 08:58:14;;;;;;;1.98;1.25;;;;;;;19.48;48.55;99821.44;5220955;28;20534;-72
2022/05/26 09:01:06;;;;;;;2.80;0.70;;;;;;;19.32;47.49;99828.81;5221341;28;20045;-71
2022/05/26 09:03:57;;;;;;;2.42;0.80;;;;;;;19.31;48.01;99821.78;5224515;28;20617;-71
2022/05/26 09:13:12;;;;;;;5.30;0.90;;;;;;;20.38;45.90;99822.41;5234947;28;20063;-72
2022/05/26 09:16:04;;;;;;;2.92;0.77;;;;;;;21.20;45.93;99829.41;5216203;28;20049;-71
2022/05/26 09:19:06;;;;;;;2.45;0.70;;;;;;;21.12;44.76;99827.66;5218452;28;20137;-71
2022/05/26 09:21:57;;;;;;;3.67;0.90;;;;;;;21.25;46.45;99818.88;5215357;28;20060;-72
2022/05/26 09:24:47;;;;;;;3.35;0.95;;;;;;;21.15;45.74;99831.84;5219207;28;20132;-71
2022/05/26 09:27:39;;;;;;;1.42;0.63;;;;;;;20.87;46.87;99824.50;5221794;28;20454;-71
2022/05/26 09:30:33;;;;;;;2.55;0.63;;;;;;;21.34;45.79;99826.66;5221223;28;20059;-69
2022/05/26 09:33:30;;;;;;;4.13;1.05;;;;;;;21.70;47.14;99817.63;5223794;28;20495;-70
2022/05/26 09:36:29;;;;;;;4.28;0.80;;;;;;;21.38;45.23;99829.81;5220105;28;20056;-69
2022/05/26 09:39:23;;;;;;;1.20;0.65;;;;;;;21.49;44.55;99829.31;5225495;28;20061;-70
2022/05/26 09:42:16;;;;;;;4.28;0.80;;;;;;;21.91;43.02;99832.09;5215740;28;20403;-69
2022/05/26 09:45:12;;;;;;;5.40;1.02;;;;;;;21.47;44.10;99839.44;5217644;28;20454;-69
2022/05/26 09:48:14;;;;;;;2.08;0.60;;;;;;;19.66;46.88;99831.91;5219977;28;20103;-69
2022/05/26 09:51:07;;;;;;;2.45;0.60;;;;;;;20.29;47.69;99853.97;5221599;28;20104;-70
2022/05/26 09:53:57;;;;;;;3.30;0.90;;;;;;;20.28;46.34;99846.09;5218799;28;20052;-70
2022/05/26 09:56:48;;;;;;;4.13;0.70;;;;;;;21.04;45.83;99842.09;5224829;28;20404;-71
2022/05/26 09:59:42;;;;;;;2.22;0.80;;;;;;;20.92;47.71;99842.78;5219805;28;20049;-70
2022/05/26 10:02:40;;;;;;;2.53;0.70;;;;;;;20.17;48.15;99847.41;5218480;28;20080;-73
2022/05/26 10:05:47;;;;;;;3.67;0.68;;;;;;;21.22;46.57;99820.06;5217984;28;20056;-71
2022/05/26 10:09:08;;;;;;;6.30;0.75;;;;;;;21.54;46.55;99840.34;5218993;28;20056;-71
2022/05/26 10:12:25;;;;;;;5.40;0.70;;;;;;;21.69;45.63;99850.19;5215579;28;20052;-70
2022/05/26 10:15:39;;;;;;;2.92;0.80;;;;;;;22.71;44.01;99849.63;5221091;28;20044;-71
2022/05/26 10:18:51;;;;;;;4.30;0.70;;;;;;;22.02;43.99;99832.41;5224531;28;20076;-71
2022/05/26 10:21:50;;;;;;;2.10;0.60;;;;;;;22.81;44.45;99836.56;5211381;28;20056;-71
2022/05/26 10:25:00;;;;;;;3.65;1.17;;;;;;;21.46;44.53;99840.47;5224145;28;20190;-72
2022/05/26 10:28:18;;;;;;;6.30;0.95;;;;;;;22.21;45.10;99846.25;5222358;28;20414;-73
2022/05/26 10:31:21;;;;;;;3.55;0.80;;;;;;;22.62;44.41;99846.28;5239367;28;20049;-72
2022/05/26 10:34:29;;;;;;;2.13;0.80;;;;;;;21.74;45.17;99834.28;5213210;28;20139;-71
2022/05/26 10:37:36;;;;;;;4.20;0.95;;;;;;;21.63;45.09;99832.94;5224545;28;20082;-71
2022/05/26 10:40:37;;;;;;;4.32;0.95;;;;;;;21.34;46.29;99837.47;5219168;28;20416;-72
2022/05/26 10:43:53;;;;;;;5.53;1.17;;;;;;;21.47;45.47;99844.84;5216906;28;20068;-68
2022/05/26 10:47:12;;;;;;;4.50;1.10;;;;;;;20.59;46.65;99844.06;5220002;28;20052;-69
2022/05/26 10:50:16;;;;;;;3.55;1.10;;;;;;;21.08;46.30;99847.94;5220956;28;20428;-69
2022/05/26 10:53:28;;;;;;;7.00;1.10;;;;;;;21.76;45.67;99843.84;5219911;28;20138;-71
2022/05/26 10:56:21;;;;;;;2.95;1.00;;;;;;;21.67;45.79;99841.50;5219252;28;20044;-71
2022/05/26 10:59:33;;;;;;;3.08;0.85;;;;;;;21.42;45.31;99843.75;5223189;28;20056;-72
2022/05/26 11:02:32;;;;;;;5.60;1.40;;;;;;;22.78;45.21;99838.84;5231440;28;20048;-73
2022/05/26 11:05:45;;;;;;;7.15;1.10;;;;;;;23.10;43.21;99842.72;5215933;28;20080;-73
2022/05/26 11:08:48;;;;;;;3.15;1.20;;;;;;;23.22;43.04;99841.09;5218226;28;20187;-74
2022/05/26 11:11:51;;;;;;;3.95;1.13;;;;;;;22.03;44.46;99844.88;5225425;28;20487;-71
2022/05/26 11:18:05;;;;;;;2.90;1.00;;;;;;;21.41;45.62;99840.22;5218297;28;20056;-74
2022/05/26 11:20:57;;;;;;;5.90;1.17;;;;;;;21.83;43.88;99841.19;5221618;28;20574;-71
2022/05/26 11:23:49;;;;;;;1.27;0.70;;;;;;;21.62;45.19;99819.63;5222377;28;20060;-72
2022/05/26 11:26:49;;;;;;;3.75;1.27;;;;;;;20.98;47.17;99832.06;5223856;28;20577;-72
2022/05/26 11:29:51;;;;;;;7.38;1.45;;;;;;;21.06;46.38;99834.66;5227459;28;20515;-72
2022/05/26 11:36:13;;;;;;;3.10;1.13;;;;;;;20.95;49.04;99851.31;5236858;28;20064;-70
2022/05/26 11:39:08;;;;;;;5.53;1.48;;;;;;;20.98;47.02;99848.25;5230162;22;20048;-66
2022/05/26 11:42:02;;;;;;;6.32;1.42;;;;;;;21.43;48.11;99854.34;5200269;28;20054;-71
2022/05/26 11:45:03;;;;;;;3.95;1.08;;;;;;;21.89;45.45;99856.63;5204016;28;20138;-70
2022/05/26 11:48:20;;;;;;;5.32;1.48;;;;;;;21.96;45.90;99851.25;5202133;28;20068;-70
2022/05/26 11:51:35;;;;;;;11.43;2.10;;;;;;;21.35;46.37;99849.91;5183663;28;20089;-71
2022/05/26 11:54:55;;;;;;;9.82;1.70;;;;;;;21.90;47.83;99858.28;5186358;28;20063;-70
2022/05/26 11:57:45;;;;;;;5.85;1.33;;;;;;;22.01;46.35;99849.63;5188914;28;20046;-69
2022/05/26 12:00:43;;;;;;;4.25;1.38;;;;;;;20.63;48.61;99837.28;5182623;28;20057;-68
2022/05/26 12:04:02;;;;;;;3.17;1.13;;;;;;;21.42;47.83;99839.19;5178555;28;20046;-68
2022/05/26 12:07:03;;;;;;;3.95;1.50;;;;;;;22.15;47.19;99847.91;5189215;28;20132;-68
2022/05/26 12:09:59;;;;;;;3.05;1.20;;;;;;;21.97;47.25;99837.56;5184771;28;20052;-70
2022/05/26 12:13:25;;;;;;;9.57;1.27;;;;;;;21.41;46.48;99847.47;5180544;28;20602;-68
2022/05/26 12:16:15;;;;;;;6.25;1.48;;;;;;;21.41;48.22;99845.59;5177172;28;20188;-69
2022/05/26 12:19:09;;;;;;;8.60;1.23;;;;;;;21.91;47.07;99848.31;5180983;28;20618;-69
2022/05/26 12:22:36;;;;;;;6.57;1.40;;;;;;;22.19;46.16;99840.25;5186700;28;20130;-68
2022/05/26 12:25:35;;;;;;;7.10;1.70;;;;;;;22.54;47.14;99842.91;5171438;28;20049;-69
2022/05/26 12:28:29;;;;;;;3.95;1.20;;;;;;;22.40;46.26;99848.25;5181509;28;20204;-67
2022/05/26 12:31:19;;;;;;;3.57;0.87;;;;;;;20.50;47.67;99822.78;5184950;28;20091;-66
2022/05/26 12:34:19;;;;;;;4.38;1.05;;;;;;;20.96;48.05;99831.44;5187348;28;20534;-67
2022/05/26 12:37:23;;;;;;;4.63;1.05;;;;;;;21.56;47.33;99843.69;5185382;28;20046;-66
2022/05/26 12:40:28;;;;;;;5.20;1.00;;;;;;;21.21;47.10;99845.38;5180534;28;20123;-67
2022/05/26 12:43:24;;;;;;;2.67;0.82;;;;;;;21.27;47.70;99843.78;5175000;28;20520;-67
2022/05/26 12:46:42;;;;;;;3.15;0.98;;;;;;;21.42;46.87;99833.78;5185789;28;20526;-68
2022/05/26 12:50:10;;;;;;;1.98;1.15;;;;;;;20.56;48.65;99839.06;5178003;28;20509;-69
2022/05/26 12:53:12;;;;;;;2.63;1.05;;;;;;;20.26;49.37;99838.19;5190410;28;20526;-67
2022/05/26 12:56:19;;;;;;;3.63;1.05;;;;;;;20.59;49.62;99827.88;5180585;28;20504;-68
2022/05/26 12:59:13;;;;;;;2.88;1.35;;;;;;;21.00;47.55;99830.03;5179248;28;20088;-68
2022/05/26 13:02:13;;;;;;;3.03;1.00;;;;;;;22.05;46.72;99829.31;5187790;28;20054;-69
2022/05/26 13:05:04;;;;;;;3.65;0.88;;;;;;;22.45;44.59;99829.56;5190761;28;20056;-69
2022/05/26 13:07:57;;;;;;;5.40;1.00;;;;;;;22.48;44.12;99829.19;5181589;28;20042;-68
2022/05/26 13:10:53;;;;;;;2.35;1.05;;;;;;;22.02;46.01;99823.47;5180592;28;20112;-69
2022/05/26 13:13:53;;;;;;;3.05;0.95;;;;;;;22.00;46.83;99825.53;5180730;28;20065;-68
2022/05/26 13:16:43;;;;;;;1.58;0.90;;;;;;;21.97;45.95;99832.16;5177678;28;20050;-69
2022/05/26 13:19:41;;;;;;;4.80;0.90;;;;;;;21.77;46.89;99826.63;5185024;28;20127;-67
2022/05/26 13:22:33;;;;;;;4.35;1.00;;;;;;;21.77;45.06;99815.00;5187610;28;20053;-69
2022/05/26 13:25:33;;;;;;;3.85;1.10;;;;;;;21.63;46.16;99813.22;5177445;28;20129;-68
2022/05/26 13:28:27;;;;;;;3.08;0.98;;;;;;;22.22;46.13;99818.22;5180033;28;20133;-70
2022/05/26 13:34:56;;;;;;;3.05;0.95;;;;;;;21.55;45.01;99817.72;5175659;28;20046;-70
2022/05/26 13:37:47;;;;;;;2.60;0.73;;;;;;;21.70;46.59;99817.63;5180727;28;20098;-70
2022/05/26 13:40:37;;;;;;;1.17;0.65;;;;;;;21.99;45.67;99822.00;5185280;28;20103;-70
2022/05/26 13:43:30;;;;;;;1.10;0.70;;;;;;;22.63;44.94;99812.78;5182513;28;20057;-70
2022/05/26 13:46:28;;;;;;;2.60;0.75;;;;;;;22.32;44.36;99816.00;5179293;28;20196;-70
2022/05/26 13:49:32;;;;;;;4.70;0.80;;;;;;;22.10;44.45;99819.78;5183559;28;20495;-69
2022/05/26 13:52:25;;;;;;;2.13;0.85;;;;;;;22.34;44.92;99808.50;5184546;28;20060;-70
2022/05/26 13:55:15;;;;;;;2.70;0.90;;;;;;;22.50;45.51;99815.44;5180888;28;20049;-71
2022/05/26 13:58:07;;;;;;;5.38;1.02;;;;;;;23.32;44.47;99809.03;5179863;28;20057;-70
2022/05/26 14:01:01;;;;;;;2.53;0.70;;;;;;;22.72;45.49;99810.75;5179892;28;20191;-69
2022/05/26 14:03:58;;;;;;;2.33;1.08;;;;;;;22.03;45.38;99795.44;5183961;28;20049;-70
2022/05/26 14:06:48;;;;;;;2.58;1.00;;;;;;;21.90;45.51;99798.06;5181870;28;20048;-71
2022/05/26 14:09:38;;;;;;;1.85;0.98;;;;;;;21.85;45.73;99790.53;5184293;28;20053;-70
2022/05/26 14:12:30;;;;;;;3.47;0.90;;;;;;;21.29;45.14;99791.34;5184303;28;20046;-70
2022/05/26 14:15:39;;;;;;;2.78;0.80;;;;;;;21.56;45.65;99776.22;5182437;28;20053;-70
2022/05/26 14:18:48;;;;;;;3.05;0.93;;;;;;;21.96;44.37;99783.75;5182053;28;20053;-70
2022/05/26 14:21:39;;;;;;;1.55;1.00;;;;;;;21.89;45.53;99775.63;5175339;28;20048;-70
2022/05/26 14:24:38;;;;;;;2.30;0.93;;;;;;;21.77;45.51;99783.44;5186121;28;20459;-70
2022/05/26 14:27:48;;;;;;;5.40;1.17;;;;;;;21.86;44.10;99764.38;5184768;28;20053;-70
2022/05/26 14:30:42;;;;;;;2.38;1.23;;;;;;;22.39;44.55;99767.41;5181563;28;20542;-71